KVYS/VYS METAR and TAF weather

Enter ICAO airport designator
Station Type Date Time Source
KVYS METAR 2022/01/27 23:35 UTC NOAA

KVYS 272335Z AUTO 26007KT 10SM OVC047 00/M04 A3018 RMK AO2 T10051040


Station Type Date Time Source
KVYS Decoded METAR 2022/01/27 23:35 UTC NOAA

Peru, Illinois Valley Regional-Walter A Duncan Field Airport, IL, United States (KVYS) 41-21-07N 089-09-11W
Jan 27, 2022 - 06:35 PM EST / 2022.01.27 2335 UTC
Wind: from the W (260 degrees) at 8 MPH (7 KT):0
Visibility: 10 mile(s):0
Sky conditions: overcast
Temperature: 31.1 F (-0.5 C)
Windchill: 23 F (-5 C):1
Dew Point: 24.8 F (-4.0 C)
Relative Humidity: 77%
Pressure (altimeter): 30.18 in. Hg (1022 hPa)
ob: KVYS 272335Z AUTO 26007KT 10SM OVC047 00/M04 A3018 RMK AO2 T10051040
cycle: 23

Station Type Date Time Source
KVYS TAF UTC NOAA

Error!

Example: see airport list